createdAt,value
2019-02-12T00:00:14.939Z,84.87
2019-02-12T00:01:14.950Z,85.35
2019-02-12T00:02:14.917Z,85.77
2019-02-12T00:03:14.907Z,85.56
2019-02-12T00:04:14.900Z,85.25
2019-02-12T00:05:14.883Z,85.98
2019-02-12T00:06:14.908Z,85.98
2019-02-12T00:07:14.862Z,85.56
2019-02-12T00:08:14.856Z,85.56
2019-02-12T00:09:14.843Z,85.35
2019-02-12T00:10:14.833Z,85.25
2019-02-12T00:11:14.843Z,85.14
2019-02-12T00:12:14.806Z,84.52
2019-02-12T00:13:14.798Z,84.27
2019-02-12T00:14:14.783Z,84.73
2019-02-12T00:15:14.772Z,84.21
2019-02-12T00:16:14.823Z,84.21
2019-02-12T00:17:14.770Z,84.42
2019-02-12T00:18:14.760Z,84.48
2019-02-12T00:19:14.729Z,84.83
2019-02-12T00:20:14.717Z,84.94
2019-02-12T00:21:14.731Z,85.25
2019-02-12T00:22:14.715Z,85.88
2019-02-12T00:23:14.685Z,85.46
2019-02-12T00:24:14.673Z,85.67
2019-02-12T00:25:14.674Z,85.98
2019-02-12T00:26:14.703Z,85.88
2019-02-12T00:27:14.648Z,85.67
2019-02-12T00:28:14.659Z,85.67
2019-02-12T00:29:14.624Z,85.42
2019-02-12T00:30:14.610Z,86.25
2019-02-12T00:31:14.620Z,86.29
2019-02-12T00:32:14.590Z,86.71
2019-02-12T00:33:16.156Z,86.46
2019-02-12T00:34:14.566Z,86.35
2019-02-12T00:35:14.555Z,86.67
2019-02-12T00:36:14.584Z,86.25
2019-02-12T00:37:14.532Z,86.98
2019-02-12T00:38:14.528Z,86.46
2019-02-12T00:39:14.509Z,86.67
2019-02-12T00:40:14.499Z,86.98
2019-02-12T00:41:14.492Z,86.73
2019-02-12T00:42:14.507Z,85.90
2019-02-12T00:43:14.474Z,86.83
2019-02-12T00:44:14.465Z,86.21
2019-02-12T00:45:14.469Z,85.69
2019-02-12T00:46:14.447Z,85.69
2019-02-12T00:47:14.453Z,86.32
2019-02-12T00:48:14.416Z,86.32
2019-02-12T00:49:14.400Z,86.38
2019-02-12T00:50:14.390Z,86.59
2019-02-12T00:51:17.838Z,87.42
2019-02-12T00:52:14.407Z,86.90
2019-02-12T00:53:16.160Z,86.90
2019-02-12T00:54:14.348Z,86.38
2019-02-12T00:55:14.352Z,86.07
2019-02-12T00:56:14.322Z,85.75
2019-02-12T00:57:14.334Z,85.93
2019-02-12T00:58:14.300Z,86.13
2019-02-12T00:59:14.305Z,85.51
2019-02-12T01:00:14.290Z,85.10
2019-02-12T01:01:14.279Z,86.44
2019-02-12T01:02:14.291Z,86.24
2019-02-12T01:03:14.245Z,85.72
2019-02-12T01:04:14.236Z,85.72
2019-02-12T01:05:14.228Z,85.72
2019-02-12T01:06:14.216Z,85.72
2019-02-12T01:07:14.227Z,85.41
2019-02-12T01:08:14.193Z,85.93
2019-02-12T01:09:14.183Z,85.30
2019-02-12T01:10:14.181Z,85.30
2019-02-12T01:11:14.158Z,85.41
2019-02-12T01:12:14.174Z,85.61
2019-02-12T01:13:14.137Z,85.41
2019-02-12T01:14:14.151Z,84.99
2019-02-12T01:15:14.118Z,84.58
2019-02-12T01:16:14.128Z,84.99
2019-02-12T01:17:14.116Z,85.13
2019-02-12T01:18:14.087Z,85.44
2019-02-12T01:19:14.072Z,85.34
2019-02-12T01:20:14.066Z,85.75
2019-02-12T01:21:14.052Z,85.30
2019-02-12T01:22:14.067Z,85.72
2019-02-12T01:23:14.027Z,85.72
2019-02-12T01:24:14.021Z,85.72
2019-02-12T01:25:14.057Z,85.61
2019-02-12T01:26:14.000Z,84.99
2019-02-12T01:27:14.006Z,85.72
2019-02-12T01:28:13.974Z,85.20
2019-02-12T01:29:13.960Z,85.41
2019-02-12T01:30:13.949Z,85.51
2019-02-12T01:31:13.958Z,85.51
2019-02-12T01:32:13.958Z,85.72
2019-02-12T01:33:13.922Z,85.20
2019-02-12T01:34:13.907Z,85.10
2019-02-12T01:35:13.898Z,85.51
2019-02-12T01:36:13.884Z,85.72
2019-02-12T01:37:13.896Z,85.72
2019-02-12T01:38:13.862Z,85.82
2019-02-12T01:39:13.973Z,85.61
2019-02-12T01:40:13.838Z,85.72
2019-02-12T01:41:13.839Z,85.72
2019-02-12T01:42:13.842Z,85.20
2019-02-12T01:43:13.808Z,85.61
2019-02-12T01:44:13.809Z,85.30
2019-02-12T01:45:13.789Z,85.72
2019-02-12T01:46:13.777Z,85.26
2019-02-12T01:47:13.784Z,85.41
2019-02-12T01:48:13.751Z,85.61
2019-02-12T01:49:13.739Z,85.41
2019-02-12T01:50:13.735Z,85.30
2019-02-12T01:51:13.719Z,85.51
2019-02-12T01:52:13.732Z,85.61
2019-02-12T01:53:13.697Z,85.82
2019-02-12T01:54:13.713Z,85.82
2019-02-12T01:55:13.673Z,85.61
2019-02-12T01:56:13.663Z,85.51
2019-02-12T01:57:13.701Z,85.20
2019-02-12T01:58:13.655Z,85.41
2019-02-12T01:59:15.140Z,85.65
2019-02-12T02:00:13.630Z,85.51
2019-02-12T02:01:13.608Z,85.61
2019-02-12T02:02:13.621Z,85.82
2019-02-12T02:03:13.607Z,85.10
2019-02-12T02:04:13.575Z,85.30
2019-02-12T02:05:13.568Z,85.41
2019-02-12T02:06:13.558Z,85.41
2019-02-12T02:07:13.575Z,85.10
2019-02-12T02:08:13.531Z,85.57
2019-02-12T02:09:13.527Z,86.24
2019-02-12T02:10:13.508Z,86.24
2019-02-12T02:11:13.506Z,85.93
2019-02-12T02:12:13.511Z,86.19
2019-02-12T02:13:13.475Z,85.68
2019-02-12T02:14:13.480Z,85.51
2019-02-12T02:15:13.480Z,85.82
2019-02-12T02:16:13.456Z,85.82
2019-02-12T02:17:13.460Z,85.36
2019-02-12T02:18:13.420Z,86.09
2019-02-12T02:19:13.411Z,86.19
2019-02-12T02:20:13.407Z,85.78
2019-02-12T02:21:13.387Z,85.57
2019-02-12T02:22:13.404Z,84.95
2019-02-12T02:23:13.371Z,85.72
2019-02-12T02:24:13.356Z,85.36
2019-02-12T02:25:13.344Z,85.72
2019-02-12T02:26:13.344Z,84.89
2019-02-12T02:27:13.347Z,85.20
2019-02-12T02:28:13.309Z,85.72
2019-02-12T02:29:13.307Z,85.82
2019-02-12T02:30:13.291Z,85.72
2019-02-12T02:31:15.140Z,85.82
2019-02-12T02:32:13.382Z,85.72
2019-02-12T02:33:13.276Z,85.26
2019-02-12T02:34:13.241Z,85.57
2019-02-12T02:35:13.238Z,85.47
2019-02-12T02:36:13.222Z,85.99
2019-02-12T02:37:13.223Z,86.09
2019-02-12T02:38:13.221Z,85.36
2019-02-12T02:39:15.133Z,85.16
2019-02-12T02:40:13.193Z,85.47
2019-02-12T02:41:13.301Z,85.47
2019-02-12T02:42:13.160Z,85.36
2019-02-12T02:43:15.148Z,85.47
2019-02-12T02:44:13.132Z,85.68
2019-02-12T02:45:13.128Z,84.95
2019-02-12T02:46:14.629Z,85.68
2019-02-12T02:47:13.100Z,85.68
2019-02-12T02:48:13.236Z,85.47
2019-02-12T02:49:13.117Z,85.26
2019-02-12T02:50:13.069Z,85.47
2019-02-12T02:51:13.061Z,85.22
2019-02-12T02:52:13.088Z,85.57
2019-02-12T02:53:13.067Z,85.47
2019-02-12T02:54:13.025Z,85.78
2019-02-12T02:55:13.014Z,85.78
2019-02-12T02:56:13.009Z,85.43
2019-02-12T02:57:13.002Z,85.68
2019-02-12T02:58:13.033Z,85.47
2019-02-12T02:59:12.985Z,85.26
2019-02-12T03:00:12.985Z,85.78
2019-02-12T03:01:12.946Z,85.26
2019-02-12T03:02:12.938Z,85.36
2019-02-12T03:03:12.949Z,85.36
2019-02-12T03:04:13.001Z,85.78
2019-02-12T03:05:12.906Z,85.36
2019-02-12T03:06:12.891Z,85.68
2019-02-12T03:07:12.880Z,85.57
2019-02-12T03:08:12.943Z,85.57
2019-02-12T03:09:12.862Z,85.57
2019-02-12T03:10:12.853Z,85.88
2019-02-12T03:11:14.641Z,84.95
2019-02-12T03:12:12.827Z,85.36
2019-02-12T03:13:12.851Z,85.68
2019-02-12T03:14:12.822Z,85.16
2019-02-12T03:15:12.808Z,85.05
2019-02-12T03:16:12.787Z,85.16
2019-02-12T03:17:12.769Z,85.36
2019-02-12T03:18:12.786Z,85.36
2019-02-12T03:19:12.747Z,84.74
2019-02-12T03:20:12.735Z,84.95
2019-02-12T03:21:12.724Z,84.64
2019-02-12T03:22:12.852Z,84.74
2019-02-12T03:23:12.753Z,84.99
2019-02-12T03:24:12.691Z,85.20
2019-02-12T03:25:12.693Z,84.68
2019-02-12T03:26:12.676Z,84.99
2019-02-12T03:27:12.659Z,84.89
2019-02-12T03:28:12.680Z,84.95
2019-02-12T03:29:12.638Z,85.10
2019-02-12T03:30:12.940Z,85.05
2019-02-12T03:31:12.687Z,85.20
2019-02-12T03:32:12.626Z,84.64
2019-02-12T03:33:12.616Z,85.51
2019-02-12T03:34:12.585Z,85.20
2019-02-12T03:35:12.574Z,85.10
2019-02-12T03:36:12.565Z,85.20
2019-02-12T03:37:14.123Z,84.99
2019-02-12T03:38:12.595Z,85.10
2019-02-12T03:39:12.538Z,84.68
2019-02-12T03:40:12.529Z,84.99
2019-02-12T03:41:12.539Z,84.68
2019-02-12T03:42:12.513Z,84.68
2019-02-12T03:43:12.508Z,84.68
2019-02-12T03:44:14.121Z,84.47
2019-02-12T03:45:14.121Z,84.68
2019-02-12T03:46:12.449Z,84.68
2019-02-12T03:47:12.439Z,84.78
2019-02-12T03:48:12.460Z,85.30
2019-02-12T03:49:14.120Z,85.61
2019-02-12T03:50:12.453Z,85.41
2019-02-12T03:51:12.393Z,85.61
2019-02-12T03:52:13.296Z,85.61
2019-02-12T03:53:14.156Z,85.10
2019-02-12T03:54:12.401Z,85.10
2019-02-12T03:55:12.354Z,85.10
2019-02-12T03:56:12.348Z,84.89
2019-02-12T03:57:12.337Z,85.10
2019-02-12T03:58:12.319Z,85.13
2019-02-12T03:59:12.329Z,84.99
2019-02-12T04:00:12.297Z,84.89
2019-02-12T04:01:12.290Z,84.72
2019-02-12T04:02:12.276Z,85.13
2019-02-12T04:03:12.260Z,85.24
2019-02-12T04:04:14.138Z,85.41
2019-02-12T04:05:12.272Z,85.24
2019-02-12T04:06:12.239Z,85.44
2019-02-12T04:07:12.224Z,85.44
2019-02-12T04:08:12.208Z,84.92
2019-02-12T04:09:12.219Z,85.65
2019-02-12T04:10:12.187Z,85.65
2019-02-12T04:11:12.175Z,85.13
2019-02-12T04:12:12.174Z,85.34
2019-02-12T04:13:12.166Z,85.86
2019-02-12T04:14:14.141Z,85.65
2019-02-12T04:15:12.137Z,85.86
2019-02-12T04:16:12.119Z,85.24
2019-02-12T04:17:12.109Z,84.72
2019-02-12T04:18:12.108Z,84.61
2019-02-12T04:19:12.115Z,84.30
2019-02-12T04:20:12.079Z,84.51
2019-02-12T04:21:12.066Z,84.96
2019-02-12T04:22:21.904Z,85.03
2019-02-12T04:23:12.056Z,85.38
2019-02-12T04:24:12.107Z,85.38
2019-02-12T04:25:12.025Z,85.49
2019-02-12T04:26:12.028Z,85.28
2019-02-12T04:27:12.013Z,84.55
2019-02-12T04:28:11.990Z,85.28
2019-02-12T04:29:12.036Z,85.69
2019-02-12T04:30:12.070Z,85.06
2019-02-12T04:31:11.984Z,86.00
2019-02-12T04:32:11.942Z,85.69
2019-02-12T04:33:11.932Z,85.90
2019-02-12T04:34:11.952Z,85.69
2019-02-12T04:35:11.909Z,85.38
2019-02-12T04:36:11.945Z,86.00
2019-02-12T04:37:11.888Z,86.52
2019-02-12T04:38:11.901Z,85.69
2019-02-12T04:39:11.913Z,85.28
2019-02-12T04:40:11.857Z,85.73
2019-02-12T04:41:11.861Z,85.80
2019-02-12T04:42:11.898Z,85.90
2019-02-12T04:43:11.826Z,85.28
2019-02-12T04:44:11.833Z,85.80
2019-02-12T04:45:11.802Z,85.17
2019-02-12T04:46:13.635Z,85.73
2019-02-12T04:47:11.802Z,85.73
2019-02-12T04:48:11.798Z,85.52
2019-02-12T04:49:11.796Z,85.67
2019-02-12T04:50:11.749Z,85.46
2019-02-12T04:51:11.762Z,85.88
2019-02-12T04:52:11.726Z,85.67
2019-02-12T04:53:11.713Z,86.40
2019-02-12T04:54:11.706Z,87.54
2019-02-12T04:55:11.729Z,87.54
2019-02-12T04:56:11.686Z,87.75
2019-02-12T04:57:11.675Z,88.23
2019-02-12T04:58:11.674Z,88.33
2019-02-12T04:59:11.675Z,87.40
2019-02-12T05:00:11.663Z,87.40
2019-02-12T05:01:11.626Z,86.57
2019-02-12T05:02:11.617Z,86.83
2019-02-12T05:03:11.604Z,87.04
2019-02-12T05:04:11.629Z,86.52
2019-02-12T05:05:11.675Z,86.11
2019-02-12T05:06:11.576Z,86.32
2019-02-12T05:07:11.563Z,86.63
2019-02-12T05:08:11.556Z,86.94
2019-02-12T05:09:11.542Z,86.94
2019-02-12T05:10:13.140Z,86.21
2019-02-12T05:11:11.523Z,86.52
2019-02-12T05:12:11.522Z,86.17
2019-02-12T05:13:13.131Z,86.21
2019-02-12T05:14:11.498Z,87.73
2019-02-12T05:15:11.497Z,87.42
2019-02-12T05:16:11.489Z,87.32
2019-02-12T05:17:11.456Z,87.42
2019-02-12T05:18:11.441Z,86.90
2019-02-12T05:19:11.431Z,87.42
2019-02-12T05:20:11.450Z,87.32
2019-02-12T05:21:11.445Z,87.27
2019-02-12T05:22:11.397Z,87.59
2019-02-12T05:23:11.389Z,86.96
2019-02-12T05:24:11.378Z,87.38
2019-02-12T05:25:12.440Z,86.76
2019-02-12T05:26:11.380Z,86.44
2019-02-12T05:27:11.347Z,86.44
2019-02-12T05:28:11.335Z,86.24
2019-02-12T05:29:11.333Z,86.13
2019-02-12T05:30:13.152Z,86.65
2019-02-12T05:31:11.300Z,86.55
2019-02-12T05:32:11.286Z,86.24
2019-02-12T05:33:11.278Z,86.44
2019-02-12T05:34:11.301Z,86.34
2019-02-12T05:35:11.277Z,86.24
2019-02-12T05:36:11.283Z,86.44
2019-02-12T05:37:11.235Z,86.55
2019-02-12T05:38:11.261Z,85.93
2019-02-12T05:39:11.217Z,86.13
2019-02-12T05:40:11.294Z,86.30
2019-02-12T05:41:11.280Z,86.41
2019-02-12T05:42:11.189Z,86.24
2019-02-12T05:43:11.168Z,86.13
2019-02-12T05:44:11.165Z,86.76
2019-02-12T05:45:11.198Z,86.13
2019-02-12T05:46:11.173Z,86.61
2019-02-12T05:47:11.138Z,85.72
2019-02-12T05:48:11.111Z,85.30
2019-02-12T05:49:11.100Z,85.68
2019-02-12T05:50:11.112Z,85.82
2019-02-12T05:51:11.082Z,85.82
2019-02-12T05:52:11.066Z,85.72
2019-02-12T05:53:11.056Z,85.41
2019-02-12T05:54:11.051Z,85.78
2019-02-12T05:55:11.244Z,85.26
2019-02-12T05:56:11.022Z,85.72
2019-02-12T05:57:11.029Z,85.93
2019-02-12T05:58:11.001Z,85.61
2019-02-12T05:59:10.989Z,85.47
2019-02-12T06:00:11.035Z,85.68
2019-02-12T06:01:10.969Z,85.20
2019-02-12T06:02:10.963Z,85.41
2019-02-12T06:03:10.977Z,85.20
2019-02-12T06:04:10.958Z,85.72
2019-02-12T06:05:10.924Z,85.57
2019-02-12T06:06:10.935Z,85.72
2019-02-12T06:07:10.908Z,85.82
2019-02-12T06:08:10.891Z,85.72
2019-02-12T06:09:10.887Z,85.51
2019-02-12T06:10:10.871Z,85.20
2019-02-12T06:11:10.881Z,85.93
2019-02-12T06:12:10.885Z,86.24
2019-02-12T06:13:10.837Z,86.13
2019-02-12T06:14:10.826Z,86.13
2019-02-12T06:15:10.815Z,85.72
2019-02-12T06:16:10.827Z,85.61
2019-02-12T06:17:10.792Z,86.03
2019-02-12T06:18:10.781Z,86.55
2019-02-12T06:19:11.670Z,85.93
2019-02-12T06:20:10.760Z,86.65
2019-02-12T06:21:11.443Z,86.55
2019-02-12T06:22:10.740Z,86.55
2019-02-12T06:23:10.754Z,85.82
2019-02-12T06:24:10.724Z,85.51
2019-02-12T06:25:10.757Z,84.99
2019-02-12T06:26:10.735Z,85.72
2019-02-12T06:27:10.687Z,85.41
2019-02-12T06:28:10.675Z,85.41
2019-02-12T06:29:10.667Z,85.30
2019-02-12T06:30:10.649Z,85.41
2019-02-12T06:31:10.661Z,85.72
2019-02-12T06:32:10.658Z,85.72
2019-02-12T06:33:10.617Z,85.72
2019-02-12T06:34:10.606Z,85.41
2019-02-12T06:35:10.595Z,85.41
2019-02-12T06:36:10.610Z,85.34
2019-02-12T06:37:10.579Z,85.51
2019-02-12T06:38:10.563Z,85.55
2019-02-12T06:39:10.612Z,85.30
2019-02-12T06:40:10.577Z,85.10
2019-02-12T06:41:10.552Z,84.99
2019-02-12T06:42:10.539Z,84.99
2019-02-12T06:43:10.508Z,84.78
2019-02-12T06:44:10.503Z,85.24
2019-02-12T06:45:10.501Z,85.86
2019-02-12T06:46:10.497Z,85.44
2019-02-12T06:47:10.466Z,85.65
2019-02-12T06:48:10.463Z,85.75
2019-02-12T06:49:10.444Z,85.03
2019-02-12T06:50:10.431Z,85.24
2019-02-12T06:51:10.455Z,85.65
2019-02-12T06:52:10.414Z,85.34
2019-02-12T06:53:12.587Z,85.34
2019-02-12T06:54:10.387Z,84.92
2019-02-12T06:55:10.387Z,85.65
2019-02-12T06:56:10.389Z,85.44
2019-02-12T06:57:10.354Z,85.69
2019-02-12T06:58:10.345Z,85.28
2019-02-12T06:59:10.336Z,85.59
2019-02-12T07:00:10.358Z,84.96
2019-02-12T07:01:10.338Z,84.86
2019-02-12T07:02:10.299Z,84.65
2019-02-12T07:03:10.289Z,85.17
2019-02-12T07:04:10.465Z,85.49
2019-02-12T07:05:10.271Z,85.49
2019-02-12T07:06:10.298Z,85.49
2019-02-12T07:07:10.269Z,85.59
2019-02-12T07:08:10.234Z,85.28
2019-02-12T07:09:10.228Z,85.59
2019-02-12T07:10:10.214Z,85.69
2019-02-12T07:11:10.231Z,85.65
2019-02-12T07:12:10.248Z,85.69
2019-02-12T07:13:10.186Z,85.59
2019-02-12T07:14:10.179Z,85.49
2019-02-12T07:15:10.162Z,85.38
2019-02-12T07:16:10.170Z,85.69
2019-02-12T07:17:10.255Z,85.28
2019-02-12T07:18:10.128Z,85.06
2019-02-12T07:19:10.114Z,85.28
2019-02-12T07:20:10.115Z,85.90
2019-02-12T07:21:10.148Z,85.38
2019-02-12T07:22:10.099Z,85.49
2019-02-12T07:23:10.127Z,85.69
2019-02-12T07:24:10.068Z,85.24
2019-02-12T07:25:10.051Z,85.38
2019-02-12T07:26:10.061Z,85.49
2019-02-12T07:27:10.033Z,84.65
2019-02-12T07:28:10.041Z,85.28
2019-02-12T07:29:10.037Z,85.03
2019-02-12T07:30:10.028Z,85.03
2019-02-12T07:31:10.013Z,84.75
2019-02-12T07:32:09.983Z,85.34
2019-02-12T07:33:13.331Z,85.34
2019-02-12T07:34:09.950Z,85.38
2019-02-12T07:35:09.943Z,85.38
2019-02-12T07:36:10.042Z,86.00
2019-02-12T07:37:09.932Z,86.11
2019-02-12T07:38:09.907Z,86.38
2019-02-12T07:39:09.898Z,86.59
2019-02-12T07:40:09.893Z,87.52
2019-02-12T07:41:19.564Z,87.63
2019-02-12T07:42:09.902Z,86.90
2019-02-12T07:43:09.863Z,86.69
2019-02-12T07:44:09.840Z,86.13
2019-02-12T07:45:09.834Z,85.93
2019-02-12T07:46:09.824Z,86.55
2019-02-12T07:47:09.845Z,86.24
2019-02-12T07:48:09.797Z,85.72
2019-02-12T07:49:09.790Z,85.51
2019-02-12T07:50:09.777Z,84.99
2019-02-12T07:51:09.785Z,85.72
2019-02-12T07:52:09.781Z,85.82
2019-02-12T07:53:09.743Z,85.41
2019-02-12T07:54:09.735Z,85.61
2019-02-12T07:55:09.722Z,85.61
2019-02-12T07:56:09.720Z,85.41
2019-02-12T07:57:09.720Z,85.72
2019-02-12T07:58:09.687Z,85.41
2019-02-12T07:59:09.688Z,85.20
2019-02-12T08:00:09.674Z,85.61
2019-02-12T08:01:09.693Z,85.72
2019-02-12T08:02:09.669Z,85.20
2019-02-12T08:03:09.647Z,85.10
2019-02-12T08:04:10.662Z,85.41
2019-02-12T08:05:09.613Z,85.82
2019-02-12T08:06:09.600Z,84.99
2019-02-12T08:07:09.611Z,85.05
2019-02-12T08:08:09.619Z,85.68
2019-02-12T08:09:09.569Z,85.61
2019-02-12T08:10:09.564Z,86.55
2019-02-12T08:11:09.545Z,86.72
2019-02-12T08:12:09.573Z,86.61
2019-02-12T08:13:09.523Z,85.88
2019-02-12T08:14:09.511Z,85.95
2019-02-12T08:15:09.500Z,85.36
2019-02-12T08:16:09.502Z,85.47
2019-02-12T08:17:09.515Z,86.16
2019-02-12T08:18:09.479Z,85.05
2019-02-12T08:19:09.457Z,85.74
2019-02-12T08:20:09.448Z,85.43
2019-02-12T08:21:09.434Z,85.88
2019-02-12T08:22:09.448Z,85.74
2019-02-12T08:23:09.413Z,85.68
2019-02-12T08:24:09.403Z,85.16
2019-02-12T08:25:09.394Z,85.22
2019-02-12T08:26:09.451Z,85.36
2019-02-12T08:27:09.426Z,85.26
2019-02-12T08:28:09.358Z,85.57
2019-02-12T08:29:09.346Z,85.02
2019-02-12T08:30:09.334Z,85.12
2019-02-12T08:31:09.329Z,85.16
2019-02-12T08:32:09.323Z,85.36
2019-02-12T08:33:09.405Z,85.36
2019-02-12T08:34:09.312Z,85.02
2019-02-12T08:35:09.341Z,85.47
2019-02-12T08:36:11.083Z,85.22
2019-02-12T08:37:09.257Z,85.33
2019-02-12T08:38:09.274Z,85.53
2019-02-12T08:39:09.243Z,85.53
2019-02-12T08:40:09.231Z,85.74
2019-02-12T08:41:09.223Z,85.02
2019-02-12T08:42:09.201Z,85.39
2019-02-12T08:43:09.225Z,85.71
2019-02-12T08:44:09.196Z,85.19
2019-02-12T08:45:09.172Z,85.08
2019-02-12T08:46:09.156Z,85.29
2019-02-12T08:47:09.161Z,85.19
2019-02-12T08:48:09.192Z,84.83
2019-02-12T08:49:09.136Z,84.56
2019-02-12T08:50:09.114Z,84.15
2019-02-12T08:51:09.104Z,84.36
2019-02-12T08:52:09.136Z,84.67
2019-02-12T08:53:09.103Z,84.67
2019-02-12T08:54:09.077Z,84.67
2019-02-12T08:55:09.075Z,84.94
2019-02-12T08:56:09.075Z,85.25
2019-02-12T08:57:09.034Z,85.25
2019-02-12T08:58:09.099Z,85.77
2019-02-12T08:59:09.016Z,85.04
2019-02-12T09:00:09.001Z,85.04
2019-02-12T09:01:09.018Z,85.04
2019-02-12T09:02:08.997Z,84.83
2019-02-12T09:03:09.026Z,84.83
2019-02-12T09:04:08.955Z,84.42
2019-02-12T09:05:08.953Z,83.80
2019-02-12T09:06:08.934Z,84.48
2019-02-12T09:07:08.935Z,84.52
2019-02-12T09:08:08.934Z,84.17
2019-02-12T09:09:08.915Z,84.48
2019-02-12T09:10:08.917Z,83.97
2019-02-12T09:11:08.912Z,83.76
2019-02-12T09:12:08.870Z,84.00
2019-02-12T09:13:08.961Z,84.48
2019-02-12T09:14:08.885Z,84.21
2019-02-12T09:15:08.833Z,84.00
2019-02-12T09:16:08.825Z,84.21
2019-02-12T09:17:08.813Z,84.31
2019-02-12T09:18:08.846Z,84.52
2019-02-12T09:19:08.792Z,84.42
2019-02-12T09:20:08.776Z,83.90
2019-02-12T09:21:08.772Z,84.00
2019-02-12T09:22:08.766Z,83.97
2019-02-12T09:23:08.783Z,84.07
2019-02-12T09:24:08.735Z,84.07
2019-02-12T09:25:08.726Z,84.17
2019-02-12T09:26:08.710Z,83.65
2019-02-12T09:27:08.701Z,84.07
2019-02-12T09:28:08.728Z,83.55
2019-02-12T09:29:08.692Z,84.17
2019-02-12T09:30:08.673Z,83.24
2019-02-12T09:31:08.658Z,83.24
2019-02-12T09:32:08.646Z,82.82
2019-02-12T09:33:08.660Z,82.93
2019-02-12T09:34:08.626Z,83.14
2019-02-12T09:35:08.611Z,82.93
2019-02-12T09:36:08.605Z,82.82
2019-02-12T09:37:08.716Z,82.93
2019-02-12T09:38:08.599Z,82.93
2019-02-12T09:39:08.571Z,83.55
2019-02-12T09:40:18.592Z,84.07
2019-02-12T09:41:09.547Z,84.17
2019-02-12T09:42:08.659Z,83.97
2019-02-12T09:43:08.547Z,84.59
2019-02-12T09:44:08.513Z,84.59
2019-02-12T09:45:08.503Z,84.44
2019-02-12T09:46:08.493Z,85.11
2019-02-12T09:47:08.482Z,84.86
2019-02-12T09:48:08.489Z,85.38
2019-02-12T09:49:08.478Z,84.55
2019-02-12T09:50:08.475Z,84.65
2019-02-12T09:51:08.456Z,85.17
2019-02-12T09:52:08.438Z,84.96
2019-02-12T09:53:08.440Z,84.86
2019-02-12T09:54:09.009Z,85.48
2019-02-12T09:55:08.392Z,85.13
2019-02-12T09:56:08.386Z,84.41
2019-02-12T09:57:08.372Z,84.03
2019-02-12T09:58:08.406Z,84.09
2019-02-12T09:59:08.373Z,83.83
2019-02-12T10:00:08.353Z,83.99
2019-02-12T10:01:10.018Z,83.99
2019-02-12T10:02:08.322Z,84.41
2019-02-12T10:03:08.323Z,84.30
2019-02-12T10:04:08.293Z,83.99
2019-02-12T10:05:08.303Z,84.06
2019-02-12T10:06:08.293Z,83.75
2019-02-12T10:07:08.301Z,83.89
2019-02-12T10:08:08.272Z,83.95
2019-02-12T10:09:08.506Z,82.75
2019-02-12T10:10:08.241Z,82.50
2019-02-12T10:11:08.222Z,82.23
2019-02-12T10:12:08.203Z,82.65
2019-02-12T10:13:08.218Z,82.23
2019-02-12T10:14:08.238Z,82.34
2019-02-12T10:15:08.170Z,81.82
2019-02-12T10:16:08.159Z,82.92
2019-02-12T10:17:08.152Z,82.81
2019-02-12T10:18:08.168Z,82.29
2019-02-12T10:19:08.304Z,82.40
2019-02-12T10:20:08.339Z,82.29
2019-02-12T10:21:08.100Z,82.19
2019-02-12T10:22:08.093Z,82.40
2019-02-12T10:23:08.080Z,82.60
2019-02-12T10:24:08.188Z,82.71
2019-02-12T10:25:08.059Z,82.19
2019-02-12T10:26:08.057Z,81.47
2019-02-12T10:27:08.033Z,81.05
2019-02-12T10:28:08.713Z,82.29
2019-02-12T10:29:08.037Z,81.16
2019-02-12T10:30:07.999Z,80.81
2019-02-12T10:31:07.994Z,81.33
2019-02-12T10:32:08.996Z,81.68
2019-02-12T10:33:07.965Z,81.02
2019-02-12T10:34:07.983Z,81.26
2019-02-12T10:35:07.945Z,81.23
2019-02-12T10:36:07.955Z,81.23
2019-02-12T10:37:07.970Z,82.15
2019-02-12T10:38:07.911Z,81.68
2019-02-12T10:39:07.923Z,80.81
2019-02-12T10:40:07.890Z,81.54
2019-02-12T10:41:07.882Z,81.74
2019-02-12T10:42:07.863Z,82.36
2019-02-12T10:43:07.872Z,82.15
2019-02-12T10:44:09.589Z,82.15
2019-02-12T10:45:07.831Z,82.26
2019-02-12T10:46:07.821Z,81.33
2019-02-12T10:47:08.430Z,81.60
2019-02-12T10:48:07.803Z,81.09
2019-02-12T10:49:07.826Z,80.08
2019-02-12T10:50:07.781Z,80.46
2019-02-12T10:51:07.794Z,80.46
2019-02-12T10:52:07.836Z,80.57
2019-02-12T10:53:08.961Z,80.46
2019-02-12T10:54:07.751Z,79.80
2019-02-12T10:55:07.726Z,80.01
2019-02-12T10:56:09.565Z,79.87
2019-02-12T10:57:07.747Z,79.66
2019-02-12T10:58:08.633Z,79.83
2019-02-12T10:59:09.608Z,78.80
2019-02-12T11:00:07.665Z,79.52
2019-02-12T11:01:07.651Z,78.56
2019-02-12T11:02:07.641Z,77.42
2019-02-12T11:03:07.631Z,77.39
2019-02-12T11:04:07.659Z,77.80
2019-02-12T11:05:07.616Z,78.42
2019-02-12T11:06:07.614Z,76.87
2019-02-12T11:07:07.584Z,76.42
2019-02-12T11:08:07.580Z,76.84
2019-02-12T11:09:09.118Z,76.73
2019-02-12T11:10:07.555Z,77.04
2019-02-12T11:11:07.562Z,76.94
2019-02-12T11:12:09.064Z,76.53
2019-02-12T11:13:07.552Z,77.35
2019-02-12T11:14:07.531Z,77.76
2019-02-12T11:15:07.495Z,77.62
2019-02-12T11:16:07.492Z,76.73
2019-02-12T11:17:07.477Z,75.77
2019-02-12T11:18:07.496Z,75.91
2019-02-12T11:19:07.480Z,75.98
2019-02-12T11:20:07.467Z,76.49
2019-02-12T11:21:11.897Z,76.59
2019-02-12T11:22:07.420Z,75.87
2019-02-12T11:23:07.406Z,75.56
2019-02-12T11:24:07.424Z,76.76
2019-02-12T11:25:07.393Z,75.98
2019-02-12T11:26:07.373Z,75.63
2019-02-12T11:27:07.388Z,75.77
2019-02-12T11:28:07.354Z,76.15
2019-02-12T11:29:07.565Z,77.31
2019-02-12T11:30:07.333Z,77.48
2019-02-12T11:31:07.317Z,76.87
2019-02-12T11:32:07.331Z,76.66
2019-02-12T11:33:07.385Z,75.94
2019-02-12T11:34:07.309Z,75.77
2019-02-12T11:35:07.312Z,75.87
2019-02-12T11:36:07.268Z,75.98
2019-02-12T11:37:07.294Z,76.29
2019-02-12T11:38:07.240Z,76.18
2019-02-12T11:39:07.251Z,75.98
2019-02-12T11:40:07.218Z,76.39
2019-02-12T11:41:07.212Z,76.90
2019-02-12T11:42:07.196Z,76.08
2019-02-12T11:43:07.193Z,76.90
2019-02-12T11:44:07.209Z,77.31
2019-02-12T11:45:07.193Z,77.01
2019-02-12T11:46:07.160Z,77.01
2019-02-12T11:47:07.142Z,76.46
2019-02-12T11:48:07.130Z,76.66
2019-02-12T11:49:07.156Z,77.01
2019-02-12T11:50:07.108Z,75.94
2019-02-12T11:51:07.100Z,76.97
2019-02-12T11:52:07.088Z,77.38
2019-02-12T11:53:07.080Z,76.76
2019-02-12T11:54:07.062Z,76.46
2019-02-12T11:55:08.579Z,75.70
2019-02-12T11:56:07.050Z,76.15
2019-02-12T11:57:07.055Z,76.46
2019-02-12T11:58:07.016Z,75.63
2019-02-12T11:59:07.006Z,75.63
2019-02-12T12:00:07.033Z,76.53
2019-02-12T12:01:06.983Z,75.90
2019-02-12T12:02:06.972Z,75.90
2019-02-12T12:03:06.964Z,76.25
2019-02-12T12:04:06.962Z,76.01
2019-02-12T12:05:06.962Z,76.87
2019-02-12T12:06:06.932Z,76.15
2019-02-12T12:07:06.919Z,76.42
2019-02-12T12:08:06.918Z,76.42
2019-02-12T12:09:06.902Z,75.73
2019-02-12T12:10:06.936Z,76.66
2019-02-12T12:11:06.924Z,76.15
2019-02-12T12:12:06.883Z,75.90
2019-02-12T12:13:06.862Z,75.84
2019-02-12T12:14:06.842Z,75.94
2019-02-12T12:15:08.577Z,76.15
2019-02-12T12:16:06.818Z,76.46
2019-02-12T12:17:06.806Z,75.94
2019-02-12T12:18:06.820Z,75.73
2019-02-12T12:19:06.847Z,76.59
2019-02-12T12:20:08.577Z,76.35
2019-02-12T12:21:06.764Z,76.97
2019-02-12T12:22:06.757Z,77.59
2019-02-12T12:23:06.750Z,77.80
2019-02-12T12:24:06.731Z,76.73
2019-02-12T12:25:06.740Z,75.90
2019-02-12T12:26:06.712Z,76.21
2019-02-12T12:27:06.695Z,76.53
2019-02-12T12:28:06.684Z,76.53
2019-02-12T12:29:06.680Z,77.00
2019-02-12T12:30:08.660Z,75.97
2019-02-12T12:31:06.650Z,76.07
2019-02-12T12:32:06.657Z,76.28
2019-02-12T12:33:06.630Z,75.56
2019-02-12T12:34:06.625Z,75.97
2019-02-12T12:35:06.636Z,75.97
2019-02-12T12:36:06.618Z,76.18
2019-02-12T12:37:06.585Z,75.77
2019-02-12T12:38:06.571Z,75.77
2019-02-12T12:39:06.564Z,76.70
2019-02-12T12:40:06.549Z,75.67
2019-02-12T12:41:06.563Z,74.95
2019-02-12T12:42:06.529Z,73.61
2019-02-12T12:43:06.521Z,74.22
2019-02-12T12:44:06.512Z,74.43
2019-02-12T12:45:06.509Z,74.53
2019-02-12T12:46:06.509Z,74.02
2019-02-12T12:47:06.472Z,73.91
2019-02-12T12:48:06.462Z,73.91
2019-02-12T12:49:06.450Z,73.88
2019-02-12T12:50:06.448Z,74.91
2019-02-12T12:51:06.470Z,74.70
2019-02-12T12:52:06.425Z,73.78